Terminal Aerodrome Forecast
Issued by NWS

Home | Current Version | Previous Version | Text Only | Print | Product List | Glossary On
Versions: 1 2 3 4 5 6 7 8 9 10 11 12 13 14
000
FTUS45 KRIW 171143
TAFCPR
TAF
KCPR 171143Z 1712/1812 36011KT P6SM VCSH OVC050
     FM171600 25018G28KT P6SM VCSH SCT060 BKN120
     FM172300 34012G20KT P6SM VCSH BKN030
     FM180500 33008KT P6SM SCT020 BKN070
     FM180800 28006KT P6SM SCT080=

USA.gov is the U.S. government's official web portal to all federal, state and local government web resources and services.